createdAt,value
2023-05-04T00:00:01.809Z,13.73
2023-05-04T00:15:01.582Z,13.64
2023-05-04T00:30:01.515Z,13.52
2023-05-04T00:45:01.354Z,13.46
2023-05-04T01:00:02.244Z,13.33
2023-05-04T01:15:01.143Z,13.22
2023-05-04T01:30:01.990Z,13.05
2023-05-04T01:45:01.782Z,12.97
2023-05-04T02:00:01.506Z,12.93
2023-05-04T02:15:01.336Z,12.83
2023-05-04T02:30:01.107Z,12.55
2023-05-04T02:45:01.769Z,12.24
2023-05-04T03:00:01.474Z,11.99
2023-05-04T03:15:01.561Z,11.82
2023-05-04T03:30:02.473Z,12.02
2023-05-04T03:45:03.881Z,11.71
2023-05-04T04:00:02.134Z,11.55
2023-05-04T04:15:01.879Z,11.7
2023-05-04T04:30:01.622Z,12.3
2023-05-04T04:45:01.262Z,12.68
2023-05-04T05:00:01.892Z,13.29
2023-05-04T05:15:01.898Z,14.15
2023-05-04T05:30:02.733Z,15.2
2023-05-04T05:45:02.433Z,16.87
2023-05-04T06:00:02.157Z,17.76
2023-05-04T06:15:01.874Z,18.65
2023-05-04T06:30:01.554Z,19.44
2023-05-04T06:45:02.194Z,23.91
2023-05-04T07:00:01.843Z,27.1
2023-05-04T07:15:01.533Z,26.22
2023-05-04T07:30:02.385Z,26.55
2023-05-04T07:45:02.197Z,30.11
2023-05-04T08:00:01.939Z,32.24
2023-05-04T08:15:01.699Z,35.3
2023-05-04T08:30:02.415Z,37.86
2023-05-04T08:45:02.068Z,38.57
2023-05-04T09:00:01.702Z,35.65
2023-05-04T09:15:02.804Z,36.49
2023-05-04T09:30:01.627Z,37.25
2023-05-04T09:45:02.380Z,38.66
2023-05-04T10:00:02.135Z,39.12
2023-05-04T10:15:01.767Z,41.72
2023-05-04T10:30:01.431Z,45.12
2023-05-04T10:45:02.134Z,44.48
2023-05-04T11:00:01.886Z,42.99
2023-05-04T11:15:01.542Z,42.78
2023-05-04T11:30:02.194Z,42.53
2023-05-04T11:45:01.824Z,44.28
2023-05-04T12:00:01.441Z,42.6
2023-05-04T12:15:02.052Z,43.64
2023-05-04T12:30:01.691Z,45.77
2023-05-04T12:45:01.377Z,46.89
2023-05-04T13:00:02.034Z,45.7
2023-05-04T13:15:01.655Z,45.58
2023-05-04T13:30:01.312Z,46.22
2023-05-04T13:45:01.924Z,46.77
2023-05-04T14:15:02.122Z,46
2023-05-04T14:30:01.739Z,45.03
2023-05-04T14:45:01.371Z,43.04
2023-05-04T15:00:01.980Z,41.78
2023-05-04T15:15:01.597Z,41.72
2023-05-04T15:30:01.242Z,41.83
2023-05-04T15:45:01.936Z,40.41
2023-05-04T16:00:01.676Z,39.57
2023-05-04T16:15:01.282Z,38.28
2023-05-04T16:30:01.969Z,35.98
2023-05-04T16:45:01.616Z,33.73
2023-05-04T17:00:01.230Z,32.16
2023-05-04T17:15:01.863Z,30.55
2023-05-04T17:30:01.567Z,29.09
2023-05-04T17:45:01.196Z,27.59
2023-05-04T18:00:01.823Z,26.49
2023-05-04T18:15:01.485Z,25.44
2023-05-04T18:30:01.158Z,24.42
2023-05-04T18:45:01.811Z,23.55
2023-05-04T19:00:01.420Z,22.93
2023-05-04T19:15:02.041Z,22.38
2023-05-04T19:30:01.668Z,21.86
2023-05-04T19:45:01.280Z,21.6
2023-05-04T20:00:01.913Z,21.39
2023-05-04T20:15:01.536Z,21.38
2023-05-04T20:30:01.226Z,21.19
2023-05-04T20:45:01.913Z,21.19
2023-05-04T21:00:01.682Z,21.05
2023-05-04T21:15:01.714Z,20.87
2023-05-04T21:30:01.459Z,20.74
2023-05-04T21:45:02.164Z,20.64
2023-05-04T22:00:01.835Z,20.28
2023-05-04T22:15:01.538Z,20.08
2023-05-04T22:30:02.305Z,19.98
2023-05-04T22:45:02.060Z,19.71
2023-05-04T23:00:01.733Z,19.33
2023-05-04T23:15:01.509Z,19.07
2023-05-04T23:30:02.265Z,18.97
2023-05-04T23:45:02.002Z,18.95
